Mountain Village, Alaska
Current Conditions -  °F | °C
As of 6:56 AM on Friday 19 Dec 2014 (Local Time) from PAMO Reporting Station
Clear Clear  
Wind Chill: -18°   Ceiling: Unl
Heat Index: -9°   Visibility: 10mi
Dew Point: -12°   Wind: 20mph
Humidity: 81%   Direction: 50°NE
Pressure: 29.23"   Gusts: NA
Location:  62.09°N, 163.73°W
Report Text: PAMO 191556Z AUTO 05017KT 10SM CLR M09/M12 A2923 RMK AO2 TSNO T10881116 SLP784 $
Loading
Personal Weather Stations






























Interactive Weather Map New forecast layout! Learn more

10-Day Weather Forecast

Advertisements
Track Severe Weather on mobile